createdAt,value
2019-01-16T00:00:30.362Z,6.08
2019-01-16T00:03:19.690Z,6.10
2019-01-16T00:06:13.323Z,6.05
2019-01-16T00:09:12.631Z,6.04
2019-01-16T00:12:12.159Z,6.11
2019-01-16T00:15:08.077Z,6.15
2019-01-16T00:17:53.617Z,6.14
2019-01-16T00:20:46.312Z,6.09
2019-01-16T00:23:27.029Z,6.09
2019-01-16T00:26:23.626Z,6.10
2019-01-16T00:29:14.562Z,6.13
2019-01-16T00:32:16.885Z,6.11
2019-01-16T00:35:10.151Z,6.11
2019-01-16T00:38:00.196Z,6.12
2019-01-16T00:41:08.328Z,6.14
2019-01-16T00:43:58.545Z,6.08
2019-01-16T00:47:00.448Z,6.18
2019-01-16T00:49:48.736Z,6.15
2019-01-16T00:52:41.734Z,6.19
2019-01-16T00:55:27.436Z,6.19
2019-01-16T00:58:20.111Z,6.17
2019-01-16T01:01:22.296Z,6.19
2019-01-16T01:04:19.787Z,6.16
2019-01-16T01:07:13.046Z,6.16
2019-01-16T01:10:02.326Z,6.14
2019-01-16T01:13:01.538Z,6.18
2019-01-16T01:15:50.323Z,6.19
2019-01-16T01:18:53.070Z,6.22
2019-01-16T01:21:46.338Z,6.18
2019-01-16T01:24:51.517Z,6.13
2019-01-16T01:27:41.894Z,6.18
2019-01-16T01:30:41.394Z,6.19
2019-01-16T01:33:30.136Z,6.17
2019-01-16T01:36:20.428Z,6.19
2019-01-16T01:39:09.598Z,6.17
2019-01-16T01:41:58.083Z,6.15
2019-01-16T01:44:58.200Z,6.11
2019-01-16T01:48:06.829Z,6.14
2019-01-16T01:50:56.727Z,6.16
2019-01-16T01:53:37.292Z,6.10
2019-01-16T01:56:21.115Z,6.12
2019-01-16T01:59:14.057Z,6.11
2019-01-16T02:02:06.403Z,6.11
2019-01-16T02:04:54.778Z,6.14
2019-01-16T02:07:39.778Z,6.09
2019-01-16T02:10:29.264Z,6.08
2019-01-16T02:13:16.538Z,6.06
2019-01-16T02:16:02.215Z,6.05
2019-01-16T02:18:54.486Z,6.01
2019-01-16T02:22:00.258Z,6.00
2019-01-16T02:24:52.952Z,6.02
2019-01-16T02:27:46.851Z,6.04
2019-01-16T02:30:39.872Z,6.04
2019-01-16T02:33:35.889Z,5.94
2019-01-16T02:36:41.106Z,5.99
2019-01-16T02:39:25.798Z,5.96
2019-01-16T02:42:19.073Z,6.00
2019-01-16T02:45:15.077Z,5.88
2019-01-16T02:48:04.228Z,5.93
2019-01-16T02:50:57.379Z,5.94
2019-01-16T02:53:53.628Z,5.77
2019-01-16T02:56:49.570Z,5.68
2019-01-16T02:59:37.005Z,5.72
2019-01-16T03:02:17.892Z,5.64
2019-01-16T03:05:08.134Z,5.66
2019-01-16T03:08:10.186Z,5.63
2019-01-16T03:14:09.029Z,5.55
2019-01-16T03:16:59.491Z,5.51
2019-01-16T03:19:47.816Z,5.54
2019-01-16T03:22:37.850Z,5.59
2019-01-16T03:25:33.937Z,5.53
2019-01-16T03:28:32.587Z,5.65
2019-01-16T03:31:25.352Z,5.57
2019-01-16T03:34:21.545Z,5.58
2019-01-16T03:37:10.838Z,5.58
2019-01-16T03:40:01.115Z,5.55
2019-01-16T03:42:46.735Z,5.52
2019-01-16T03:45:37.461Z,5.57
2019-01-16T03:48:45.470Z,5.54
2019-01-16T03:51:33.531Z,5.56
2019-01-16T03:54:30.127Z,5.50
2019-01-16T03:57:25.829Z,5.56
2019-01-16T04:00:33.768Z,5.56
2019-01-16T04:03:23.035Z,5.54
2019-01-16T04:06:19.122Z,5.51
2019-01-16T04:09:18.359Z,5.46
2019-01-16T04:12:07.054Z,5.57
2019-01-16T04:14:49.562Z,5.54
2019-01-16T04:17:37.178Z,5.52
2019-01-16T04:20:21.284Z,5.62
2019-01-16T04:23:01.971Z,5.57
2019-01-16T04:26:10.936Z,5.57
2019-01-16T04:29:04.849Z,5.56
2019-01-16T04:31:53.771Z,5.50
2019-01-16T04:34:41.035Z,5.53
2019-01-16T04:37:40.065Z,5.56
2019-01-16T04:40:29.828Z,5.56
2019-01-16T04:43:11.955Z,5.55
2019-01-16T04:46:04.856Z,5.56
2019-01-16T04:49:01.831Z,5.60
2019-01-16T04:51:50.537Z,5.60
2019-01-16T04:54:40.481Z,5.59
2019-01-16T04:57:30.947Z,5.65
2019-01-16T05:00:11.487Z,5.59
2019-01-16T05:03:16.387Z,5.55
2019-01-16T05:06:04.755Z,5.54
2019-01-16T05:09:07.195Z,5.55
2019-01-16T05:12:06.348Z,5.56
2019-01-16T05:15:15.513Z,5.54
2019-01-16T05:18:03.804Z,5.54
2019-01-16T05:20:57.157Z,5.60
2019-01-16T05:23:53.194Z,5.60
2019-01-16T05:26:42.571Z,5.59
2019-01-16T05:29:41.597Z,5.55
2019-01-16T05:32:37.687Z,5.57
2019-01-16T05:35:31.666Z,5.60
2019-01-16T05:38:24.447Z,5.56
2019-01-16T05:41:26.011Z,5.56
2019-01-16T05:44:31.460Z,5.54
2019-01-16T05:47:18.995Z,5.56
2019-01-16T05:50:05.715Z,5.63
2019-01-16T05:52:50.458Z,5.60
2019-01-16T05:55:56.487Z,5.59
2019-01-16T05:58:57.217Z,5.61
2019-01-16T06:01:47.200Z,5.64
2019-01-16T06:04:45.794Z,5.66
2019-01-16T06:07:35.167Z,5.64
2019-01-16T06:10:28.463Z,5.64
2019-01-16T06:13:17.334Z,5.67
2019-01-16T06:16:19.609Z,5.67
2019-01-16T06:19:12.944Z,5.69
2019-01-16T06:22:00.811Z,5.69
2019-01-16T06:24:50.940Z,5.74
2019-01-16T06:27:47.202Z,5.81
2019-01-16T06:30:33.347Z,5.82
2019-01-16T06:33:18.229Z,5.80
2019-01-16T06:36:08.187Z,5.84
2019-01-16T06:39:05.026Z,5.86
2019-01-16T06:42:13.676Z,5.84
2019-01-16T06:45:02.309Z,5.89
2019-01-16T06:47:58.163Z,5.90
2019-01-16T06:50:48.092Z,5.92
2019-01-16T06:53:56.827Z,5.92
2019-01-16T06:56:58.568Z,5.94
2019-01-16T06:59:48.208Z,5.91
2019-01-16T07:02:35.131Z,5.90
2019-01-16T07:05:34.711Z,5.88
2019-01-16T07:08:30.273Z,5.88
2019-01-16T07:11:20.113Z,5.89
2019-01-16T07:14:08.500Z,5.90
2019-01-16T07:17:16.259Z,5.95
2019-01-16T07:20:09.769Z,5.94
2019-01-16T07:23:07.995Z,5.94
2019-01-16T07:26:06.684Z,5.92
2019-01-16T07:29:06.013Z,5.96
2019-01-16T07:32:11.025Z,5.94
2019-01-16T07:34:54.553Z,5.92
2019-01-16T07:37:41.336Z,5.93
2019-01-16T07:40:43.665Z,5.97
2019-01-16T07:43:32.218Z,5.93
2019-01-16T07:46:17.179Z,5.96
2019-01-16T07:49:05.597Z,6.00
2019-01-16T07:51:57.406Z,5.99
2019-01-16T07:54:46.934Z,6.01
2019-01-16T07:57:27.894Z,6.05
2019-01-16T08:00:35.378Z,6.05
2019-01-16T08:03:25.575Z,6.07
2019-01-16T08:06:24.195Z,6.02
2019-01-16T08:09:12.262Z,6.06
2019-01-16T08:12:17.011Z,6.03
2019-01-16T08:15:09.326Z,6.09
2019-01-16T08:17:52.896Z,6.11
2019-01-16T08:20:45.564Z,6.13
2019-01-16T08:23:35.087Z,6.14
2019-01-16T08:26:31.712Z,6.15
2019-01-16T08:29:21.658Z,6.11
2019-01-16T08:32:11.335Z,6.10
2019-01-16T08:34:59.451Z,6.12
2019-01-16T08:38:06.972Z,6.11
2019-01-16T08:40:54.827Z,6.09
2019-01-16T08:43:40.331Z,6.12
2019-01-16T08:46:28.790Z,6.12
2019-01-16T08:49:33.657Z,6.15
2019-01-16T08:52:38.362Z,6.12
2019-01-16T08:55:40.102Z,6.16
2019-01-16T08:58:29.980Z,6.15
2019-01-16T09:01:32.567Z,6.18
2019-01-16T09:04:22.866Z,6.17
2019-01-16T09:07:15.616Z,6.18
2019-01-16T09:10:01.140Z,6.18
2019-01-16T09:12:51.083Z,6.23
2019-01-16T09:15:43.747Z,6.20
2019-01-16T09:18:28.259Z,6.24
2019-01-16T09:21:27.018Z,6.21
2019-01-16T09:24:19.759Z,6.20
2019-01-16T09:27:08.382Z,6.23
2019-01-16T09:30:10.298Z,6.23
2019-01-16T09:33:01.235Z,6.29
2019-01-16T09:35:56.926Z,6.32
2019-01-16T09:38:46.553Z,6.33
2019-01-16T09:41:34.668Z,6.33
2019-01-16T09:44:24.504Z,6.32
2019-01-16T09:47:26.501Z,6.36
2019-01-16T09:50:34.369Z,6.38
2019-01-16T09:53:23.104Z,6.39
2019-01-16T09:56:24.910Z,6.39
2019-01-16T09:59:20.597Z,6.40
2019-01-16T10:05:28.588Z,6.42
2019-01-16T10:08:16.316Z,6.42
2019-01-16T10:11:15.801Z,6.46
2019-01-16T10:14:08.694Z,6.47
2019-01-16T10:17:09.263Z,6.49
2019-01-16T10:20:04.215Z,6.51
2019-01-16T10:22:59.984Z,6.55
2019-01-16T10:25:47.413Z,6.57
2019-01-16T10:28:40.394Z,6.60
2019-01-16T10:31:41.814Z,6.59
2019-01-16T10:34:46.868Z,6.64
2019-01-16T10:37:35.372Z,6.65
2019-01-16T10:40:24.073Z,6.68
2019-01-16T10:43:26.090Z,6.68
2019-01-16T10:46:07.814Z,6.69
2019-01-16T10:48:49.803Z,6.73
2019-01-16T10:51:37.870Z,6.74
2019-01-16T10:54:36.255Z,6.81
2019-01-16T10:57:24.631Z,6.77
2019-01-16T11:00:23.187Z,6.81
2019-01-16T11:03:16.335Z,6.82
2019-01-16T11:06:16.475Z,6.82
2019-01-16T11:09:06.441Z,6.85
2019-01-16T11:12:08.586Z,6.87
2019-01-16T11:14:55.059Z,6.92
2019-01-16T11:18:03.147Z,6.89
2019-01-16T11:20:51.730Z,6.88
2019-01-16T11:23:50.901Z,6.93
2019-01-16T11:26:38.838Z,6.92
2019-01-16T11:29:27.287Z,6.98
2019-01-16T11:32:14.560Z,6.95
2019-01-16T11:35:03.794Z,6.99
2019-01-16T11:37:59.639Z,6.97
2019-01-16T11:41:05.781Z,7.00
2019-01-16T11:44:13.632Z,6.98
2019-01-16T11:46:50.203Z,6.94
2019-01-16T11:49:58.324Z,6.93
2019-01-16T11:52:56.739Z,6.93
2019-01-16T11:55:55.986Z,7.00
2019-01-16T11:58:32.172Z,7.03
2019-01-16T12:01:21.784Z,7.07
2019-01-16T12:07:17.009Z,7.10
2019-01-16T12:10:03.811Z,7.09
2019-01-16T12:12:46.975Z,7.07
2019-01-16T12:15:52.022Z,7.06
2019-01-16T12:18:49.858Z,6.96
2019-01-16T12:21:48.235Z,7.04
2019-01-16T12:24:44.289Z,7.06
2019-01-16T12:27:34.201Z,6.98
2019-01-16T12:30:25.747Z,6.95
2019-01-16T12:33:04.566Z,6.98
2019-01-16T12:35:52.069Z,7.04
2019-01-16T12:38:40.443Z,7.01
2019-01-16T12:41:28.320Z,7.04
2019-01-16T12:44:33.050Z,7.04
2019-01-16T12:47:21.346Z,7.02
2019-01-16T12:50:20.178Z,6.93
2019-01-16T12:53:18.708Z,7.08
2019-01-16T12:56:16.916Z,7.00
2019-01-16T12:58:57.955Z,7.02
2019-01-16T13:01:43.338Z,6.90
2019-01-16T13:04:26.976Z,7.00
2019-01-16T13:07:31.919Z,7.04
2019-01-16T13:10:22.647Z,7.04
2019-01-16T13:13:15.881Z,7.00
2019-01-16T13:16:04.238Z,7.05
2019-01-16T13:19:00.148Z,6.98
2019-01-16T13:21:49.893Z,6.90
2019-01-16T13:24:38.909Z,6.93
2019-01-16T13:27:27.100Z,6.94
2019-01-16T13:30:30.136Z,6.90
2019-01-16T13:33:28.484Z,6.97
2019-01-16T13:36:17.992Z,6.98
2019-01-16T13:38:55.487Z,6.95
2019-01-16T13:41:55.401Z,6.85
2019-01-16T13:44:51.195Z,6.92
2019-01-16T13:47:49.829Z,6.89
2019-01-16T13:50:39.005Z,7.01
2019-01-16T13:53:26.829Z,6.88
2019-01-16T13:56:08.441Z,7.00
2019-01-16T13:58:50.947Z,6.93
2019-01-16T14:01:52.200Z,6.98
2019-01-16T14:04:32.478Z,6.93
2019-01-16T14:07:20.634Z,6.81
2019-01-16T14:10:06.761Z,6.85
2019-01-16T14:13:05.472Z,6.84
2019-01-16T14:15:53.652Z,6.76
2019-01-16T14:18:55.186Z,6.72
2019-01-16T14:21:40.464Z,6.74
2019-01-16T14:24:45.225Z,6.69
2019-01-16T14:27:33.288Z,6.70
2019-01-16T14:30:25.907Z,6.68
2019-01-16T14:33:18.427Z,6.60
2019-01-16T14:36:08.119Z,6.63
2019-01-16T14:38:56.295Z,6.59
2019-01-16T14:42:03.827Z,6.56
2019-01-16T14:44:44.626Z,6.56
2019-01-16T14:47:53.262Z,6.53
2019-01-16T14:50:54.847Z,6.56
2019-01-16T14:53:56.350Z,6.66
2019-01-16T14:56:44.413Z,6.59
2019-01-16T14:59:36.867Z,6.49
2019-01-16T15:02:25.067Z,6.55
2019-01-16T15:05:16.505Z,6.59
2019-01-16T15:08:04.749Z,6.45
2019-01-16T15:10:49.045Z,6.54
2019-01-16T15:13:44.338Z,6.45
2019-01-16T15:16:32.575Z,6.42
2019-01-16T15:19:34.162Z,6.40
2019-01-16T15:22:32.759Z,6.41
2019-01-16T15:25:25.074Z,6.38
2019-01-16T15:28:14.620Z,6.34
2019-01-16T15:30:58.853Z,6.31
2019-01-16T15:33:48.429Z,6.29
2019-01-16T15:36:47.734Z,6.28
2019-01-16T15:39:37.533Z,6.23
2019-01-16T15:42:27.536Z,6.21
2019-01-16T15:45:16.340Z,6.19
2019-01-16T15:48:08.943Z,6.13
2019-01-16T15:50:57.310Z,6.11
2019-01-16T15:53:45.615Z,6.08
2019-01-16T15:56:44.287Z,6.10
2019-01-16T15:59:23.179Z,5.99
2019-01-16T16:02:11.171Z,5.99
2019-01-16T16:05:04.271Z,5.95
2019-01-16T16:07:57.642Z,5.94
2019-01-16T16:10:49.087Z,5.88
2019-01-16T16:13:31.552Z,5.86
2019-01-16T16:16:19.387Z,5.82
2019-01-16T16:25:04.441Z,5.77
2019-01-16T16:27:57.154Z,5.72
2019-01-16T16:30:46.717Z,5.71
2019-01-16T16:33:36.259Z,5.61
2019-01-16T16:36:24.752Z,5.64
2019-01-16T16:39:17.967Z,5.57
2019-01-16T16:42:07.747Z,5.55
2019-01-16T16:44:56.011Z,5.50
2019-01-16T16:47:55.028Z,5.50
2019-01-16T16:50:36.166Z,5.44
2019-01-16T16:53:25.879Z,5.41
2019-01-16T16:56:10.868Z,5.42
2019-01-16T16:58:58.986Z,5.42
2019-01-16T17:01:43.993Z,5.44
2019-01-16T17:04:44.295Z,5.35
2019-01-16T17:07:48.803Z,5.32
2019-01-16T17:10:36.282Z,5.30
2019-01-16T17:13:31.863Z,5.28
2019-01-16T17:16:24.719Z,5.24
2019-01-16T17:19:13.990Z,5.20
2019-01-16T17:22:19.626Z,5.17
2019-01-16T17:25:07.829Z,5.16
2019-01-16T17:28:15.851Z,5.11
2019-01-16T17:31:04.466Z,5.11
2019-01-16T17:33:53.047Z,5.05
2019-01-16T17:36:50.304Z,5.03
2019-01-16T17:39:43.179Z,5.03
2019-01-16T17:42:23.308Z,5.00
2019-01-16T17:45:31.731Z,4.99
2019-01-16T17:48:21.330Z,4.98
2019-01-16T17:51:19.827Z,4.98
2019-01-16T17:54:08.767Z,5.00
2019-01-16T17:56:58.655Z,4.95
2019-01-16T17:59:46.738Z,4.93
2019-01-16T18:02:29.056Z,4.94
2019-01-16T18:08:22.395Z,4.89
2019-01-16T18:11:06.295Z,4.87
2019-01-16T18:13:56.284Z,4.88
2019-01-16T18:16:45.152Z,4.83
2019-01-16T18:19:34.714Z,4.79
2019-01-16T18:22:27.673Z,4.78
2019-01-16T18:25:20.257Z,4.76
2019-01-16T18:28:04.674Z,4.74
2019-01-16T18:31:01.084Z,4.74
2019-01-16T18:34:06.074Z,4.70
2019-01-16T18:36:57.291Z,4.69
2019-01-16T18:39:47.828Z,4.63
2019-01-16T18:42:40.734Z,4.59
2019-01-16T18:45:30.051Z,4.58
2019-01-16T18:48:26.555Z,4.57
2019-01-16T18:51:34.572Z,4.54
2019-01-16T18:54:24.436Z,4.51
2019-01-16T18:57:17.439Z,4.48
2019-01-16T19:00:12.798Z,4.46
2019-01-16T19:03:01.286Z,4.43
2019-01-16T19:05:53.994Z,4.41
2019-01-16T19:08:42.294Z,4.38
2019-01-16T19:11:32.601Z,4.37
2019-01-16T19:14:16.155Z,4.40
2019-01-16T19:17:03.667Z,4.31
2019-01-16T19:19:53.248Z,4.31
2019-01-16T19:22:58.075Z,4.22
2019-01-16T19:25:57.927Z,4.22
2019-01-16T19:28:47.042Z,4.18
2019-01-16T19:31:36.758Z,4.17
2019-01-16T19:34:26.715Z,4.18
2019-01-16T19:37:19.181Z,4.13
2019-01-16T19:43:22.386Z,4.05
2019-01-16T19:46:18.302Z,3.99
2019-01-16T19:49:20.335Z,3.98
2019-01-16T19:52:01.285Z,3.98
2019-01-16T19:54:53.914Z,3.94
2019-01-16T19:57:34.512Z,3.93
2019-01-16T20:00:24.507Z,3.89
2019-01-16T20:03:12.718Z,3.84
2019-01-16T20:06:08.626Z,3.83
2019-01-16T20:08:52.309Z,3.77
2019-01-16T20:11:41.865Z,3.82
2019-01-16T20:14:32.139Z,3.75
2019-01-16T20:17:12.589Z,3.71
2019-01-16T20:20:14.439Z,3.66
2019-01-16T20:23:12.718Z,3.65
2019-01-16T20:25:57.247Z,3.67
2019-01-16T20:28:47.071Z,3.67
2019-01-16T20:31:48.599Z,3.67
2019-01-16T20:34:33.698Z,3.71
2019-01-16T20:37:21.595Z,3.68
2019-01-16T20:40:10.401Z,3.69
2019-01-16T20:43:15.371Z,3.71
2019-01-16T20:46:21.670Z,3.73
2019-01-16T20:49:11.655Z,3.74
2019-01-16T20:51:59.898Z,3.73
2019-01-16T20:54:49.398Z,3.72
2019-01-16T20:57:38.891Z,3.70
2019-01-16T21:00:33.076Z,3.73
2019-01-16T21:03:23.207Z,3.71
2019-01-16T21:06:07.744Z,3.66
2019-01-16T21:08:51.278Z,3.65
2019-01-16T21:11:36.616Z,3.68
2019-01-16T21:14:29.004Z,3.68
2019-01-16T21:17:12.179Z,3.65
2019-01-16T21:20:00.227Z,3.65
2019-01-16T21:22:48.419Z,3.59
2019-01-16T21:25:26.177Z,3.57
2019-01-16T21:28:39.781Z,3.57
2019-01-16T21:31:44.536Z,3.54
2019-01-16T21:34:48.968Z,3.48
2019-01-16T21:37:42.013Z,3.52
2019-01-16T21:40:30.151Z,3.52
2019-01-16T21:43:14.855Z,3.49
2019-01-16T21:46:04.920Z,3.53
2019-01-16T21:48:47.890Z,3.43
2019-01-16T21:51:47.015Z,3.54
2019-01-16T21:54:33.917Z,3.52
2019-01-16T21:57:26.548Z,3.45
2019-01-16T22:00:28.930Z,3.45
2019-01-16T22:03:17.154Z,3.50
2019-01-16T22:06:09.893Z,3.40
2019-01-16T22:09:08.547Z,3.50
2019-01-16T22:11:56.633Z,3.53
2019-01-16T22:14:46.148Z,3.47
2019-01-16T22:17:44.491Z,3.49
2019-01-16T22:20:25.763Z,3.56
2019-01-16T22:23:21.834Z,3.54
2019-01-16T22:26:21.012Z,3.59
2019-01-16T22:29:09.308Z,3.57
2019-01-16T22:32:00.923Z,3.62
2019-01-16T22:35:00.182Z,3.69
2019-01-16T22:37:46.718Z,3.71
2019-01-16T22:40:35.358Z,3.70
2019-01-16T22:43:27.666Z,3.74
2019-01-16T22:46:17.943Z,3.73
2019-01-16T22:49:04.794Z,3.82
2019-01-16T22:51:54.381Z,3.83
2019-01-16T22:54:42.518Z,3.83
2019-01-16T22:57:35.117Z,3.88
2019-01-16T23:00:29.499Z,3.88
2019-01-16T23:03:19.514Z,3.91
2019-01-16T23:06:07.640Z,3.92
2019-01-16T23:08:56.198Z,3.93
2019-01-16T23:11:39.938Z,3.93
2019-01-16T23:14:22.451Z,3.96
2019-01-16T23:17:11.969Z,4.01
2019-01-16T23:20:02.088Z,3.98
2019-01-16T23:23:03.753Z,3.99
2019-01-16T23:26:05.230Z,3.99
2019-01-16T23:29:02.935Z,4.03
2019-01-16T23:32:01.624Z,4.01
2019-01-16T23:34:49.875Z,4.04
2019-01-16T23:37:39.431Z,4.01
2019-01-16T23:40:37.198Z,4.06
2019-01-16T23:43:25.388Z,4.06
2019-01-16T23:46:09.469Z,4.02
2019-01-16T23:49:17.533Z,4.02
2019-01-16T23:51:57.748Z,4.04
2019-01-16T23:54:53.201Z,4.05
2019-01-16T23:57:49.393Z,4.04
